Forside
METAR-TAF:

METAR-TAF

Lufthavne :

Roscommon County - Blodgett Memorial Airport

Houghton Lake, Michigan, USA

Breddekreds: 44-21-04N, længdekreds: 084-40-27W, højde: 350 m

Aktuelle vejr

Denne rapport blev lavet for 30 minutter siden, kl. 12:53 UTC
Vind 6 kt fra nordøst
Temperatur 1°C
Fugtighed 86%
Tryk 1019 hPa
Sigt: 16.1 km
Overskyet i en højde af 700 ft

METAR: KHTL 311253Z AUTO 05006KT 10SM OVC007 01/M01 A3008 RMK AO2 SLP199 T00111011

Tid: 09:23 (13:23 UTC)


TAF: fraværende

Vejrobservationer og prognoser fra mere end 4000 lufthavne (METAR og TAF).

De gule og røde prikker repræsenterer de meteorologiske stationer.

Flyt musen over at se navnet på stationen.

Så klik over at se vejr observationer og prognoser.

At skifte det kort: Klik på de grønne knapper med et sort kors for at zoome ind; på den grønne knap med en bindestreg for at zoome ud; eller på de grønne pile for tilstødende kort.


METAR-TAF: